createdAt,value
2023-03-26T00:04:39.203Z,3.85
2023-03-26T00:07:42.601Z,5.27
2023-03-26T00:10:45.219Z,4.32
2023-03-26T00:13:47.838Z,4.63
2023-03-26T00:16:50.998Z,5.23
2023-03-26T00:19:53.728Z,5.10
2023-03-26T00:22:56.596Z,5.10
2023-03-26T00:25:58.848Z,5.15
2023-03-26T00:29:03.474Z,5.45
2023-03-26T00:32:05.959Z,5.43
2023-03-26T00:35:08.320Z,5.50
2023-03-26T00:38:11.097Z,5.75
2023-03-26T00:41:24.948Z,5.18
2023-03-26T00:44:26.996Z,5.50
2023-03-26T00:47:33.189Z,4.78
2023-03-26T00:50:35.659Z,4.00
2023-03-26T00:53:39.136Z,5.22
2023-03-26T00:56:41.282Z,4.85
2023-03-26T00:59:43.356Z,4.90
2023-03-26T01:02:46.851Z,4.85
2023-03-26T01:05:55.170Z,4.20
2023-03-26T01:09:00.474Z,6.55
2023-03-26T01:12:05.524Z,4.65
2023-03-26T01:15:08.441Z,5.32
2023-03-26T01:18:13.944Z,4.88
2023-03-26T01:21:22.881Z,6.45
2023-03-26T01:24:26.122Z,4.88
2023-03-26T01:27:28.104Z,5.25
2023-03-26T01:30:49.781Z,6.55
2023-03-26T01:34:41.532Z,6.57
2023-03-26T01:38:11.105Z,6.88
2023-03-26T01:41:41.870Z,6.93
2023-03-26T01:44:52.730Z,4.85
2023-03-26T01:47:56.579Z,4.75
2023-03-26T01:50:58.970Z,5.32
2023-03-26T01:54:04.356Z,5.15
2023-03-26T01:57:06.354Z,5.20
2023-03-26T02:00:14.376Z,5.47
2023-03-26T02:03:32.613Z,4.72
2023-03-26T02:06:42.696Z,6.30
2023-03-26T02:09:51.212Z,4.60
2023-03-26T02:12:53.346Z,5.07
2023-03-26T02:16:01.218Z,4.90
2023-03-26T02:19:04.944Z,5.97
2023-03-26T02:22:12.693Z,5.60
2023-03-26T02:25:18.551Z,4.57
2023-03-26T02:28:21.035Z,4.13
2023-03-26T02:31:26.560Z,5.03
2023-03-26T02:34:28.945Z,5.55
2023-03-26T02:37:33.970Z,4.78
2023-03-26T02:40:36.030Z,4.45
2023-03-26T02:43:38.080Z,5.00
2023-03-26T02:46:40.565Z,4.35
2023-03-26T02:49:42.833Z,5.00
2023-03-26T02:52:49.225Z,4.30
2023-03-26T02:55:51.258Z,4.00
2023-03-26T02:58:53.397Z,5.20
2023-03-26T03:01:56.490Z,4.57
2023-03-26T03:05:01.705Z,4.70
2023-03-26T03:08:06.087Z,4.07
2023-03-26T03:11:14.796Z,5.50
2023-03-26T03:14:16.960Z,4.97
2023-03-26T03:17:20.944Z,4.88
2023-03-26T03:20:23.028Z,4.65
2023-03-26T03:23:25.094Z,5.15
2023-03-26T03:26:27.693Z,4.45
2023-03-26T03:29:29.769Z,4.03
2023-03-26T03:32:31.887Z,4.13
2023-03-26T03:35:34.237Z,5.93
2023-03-26T03:38:41.389Z,4.80
2023-03-26T03:41:43.521Z,4.68
2023-03-26T03:44:46.107Z,4.88
2023-03-26T03:47:49.204Z,4.90
2023-03-26T03:50:51.703Z,5.53
2023-03-26T03:53:55.946Z,5.15
2023-03-26T03:56:58.554Z,4.22
2023-03-26T04:00:00.891Z,3.75
2023-03-26T04:03:06.431Z,6.07
2023-03-26T04:06:11.190Z,5.20
2023-03-26T04:12:15.575Z,5.32
2023-03-26T04:15:25.054Z,4.75
2023-03-26T04:18:27.924Z,6.22
2023-03-26T04:21:34.045Z,4.63
2023-03-26T04:24:40.300Z,5.05
2023-03-26T04:27:44.229Z,4.80
2023-03-26T04:30:46.362Z,4.65
2023-03-26T04:33:48.416Z,4.40
2023-03-26T04:36:54.640Z,4.15
2023-03-26T04:39:56.950Z,3.95
2023-03-26T04:43:00.080Z,3.78
2023-03-26T04:46:03.528Z,4.75
2023-03-26T04:49:05.579Z,4.40
2023-03-26T04:52:07.669Z,5.68
2023-03-26T04:55:25.081Z,4.57
2023-03-26T04:58:32.866Z,5.47
2023-03-26T05:01:37.929Z,5.07
2023-03-26T05:04:40.266Z,4.53
2023-03-26T05:07:42.409Z,4.65
2023-03-26T05:10:44.459Z,4.53
2023-03-26T05:13:47.249Z,3.85
2023-03-26T05:16:50.483Z,4.18
2023-03-26T05:19:52.611Z,3.55
2023-03-26T05:22:54.684Z,3.88
2023-03-26T05:25:56.908Z,4.18
2023-03-26T05:28:59.492Z,5.20
2023-03-26T05:32:01.781Z,4.65
2023-03-26T05:35:04.505Z,3.90
2023-03-26T05:38:06.644Z,5.13
2023-03-26T05:41:10.497Z,2.90
2023-03-26T05:44:12.777Z,5.30
2023-03-26T05:47:14.825Z,3.58
2023-03-26T05:50:16.942Z,4.15
2023-03-26T05:53:19.555Z,2.83
2023-03-26T05:56:21.726Z,3.10
2023-03-26T05:59:24.224Z,4.53
2023-03-26T06:02:26.309Z,3.50
2023-03-26T06:05:32.663Z,4.55
2023-03-26T06:08:34.656Z,3.33
2023-03-26T06:11:37.407Z,3.38
2023-03-26T06:14:39.517Z,3.00
2023-03-26T06:17:41.643Z,2.58
2023-03-26T06:20:43.840Z,3.55
2023-03-26T06:23:46.841Z,2.83
2023-03-26T06:26:48.951Z,2.55
2023-03-26T06:29:51.048Z,2.63
2023-03-26T06:32:53.102Z,2.60
2023-03-26T06:35:55.610Z,2.45
2023-03-26T06:38:57.833Z,2.67
2023-03-26T06:42:00.818Z,1.70
2023-03-26T06:45:03.049Z,1.35
2023-03-26T06:48:06.283Z,1.95
2023-03-26T06:51:09.877Z,1.80
2023-03-26T06:54:11.993Z,1.53
2023-03-26T06:57:15.210Z,1.33
2023-03-26T07:00:17.575Z,1.25
2023-03-26T07:03:19.631Z,1.20
2023-03-26T07:06:21.748Z,2.60
2023-03-26T07:09:23.943Z,1.52
2023-03-26T07:12:27.241Z,1.75
2023-03-26T07:15:29.638Z,1.80
2023-03-26T07:18:31.725Z,2.08
2023-03-26T07:21:34.083Z,1.48
2023-03-26T07:24:36.956Z,1.83
2023-03-26T07:27:57.661Z,1.65
2023-03-26T07:31:15.724Z,1.17
2023-03-26T07:34:38.673Z,1.88
2023-03-26T07:37:46.890Z,2.22
2023-03-26T07:41:01.653Z,1.05
2023-03-26T07:44:11.725Z,2.22
2023-03-26T07:47:41.930Z,0.93
2023-03-26T07:50:44.837Z,1.27
2023-03-26T07:53:47.197Z,1.20
2023-03-26T07:57:02.024Z,0.80
2023-03-26T08:00:12.356Z,1.45
2023-03-26T08:03:14.591Z,1.55
2023-03-26T08:06:35.407Z,0.70
2023-03-26T08:10:00.163Z,1.42
2023-03-26T08:13:17.788Z,1.27
2023-03-26T08:16:28.434Z,1.50
2023-03-26T08:19:49.320Z,1.23
2023-03-26T08:23:02.469Z,1.27
2023-03-26T08:26:39.852Z,1.20
2023-03-26T08:30:14.870Z,1.27
2023-03-26T08:36:22.717Z,0.93
2023-03-26T08:39:25.078Z,1.10
2023-03-26T08:43:11.550Z,1.42
2023-03-26T08:46:30.701Z,2.45
2023-03-26T08:49:32.746Z,1.67
2023-03-26T08:53:07.991Z,1.20
2023-03-26T08:56:16.706Z,1.08
2023-03-26T08:59:19.532Z,1.38
2023-03-26T09:02:40.065Z,1.30
2023-03-26T09:06:03.269Z,1.95
2023-03-26T09:09:33.761Z,1.65
2023-03-26T09:12:38.590Z,1.52
2023-03-26T09:16:18.140Z,1.05
2023-03-26T09:19:39.501Z,1.02
2023-03-26T09:23:15.193Z,1.48
2023-03-26T09:26:48.066Z,0.98
2023-03-26T09:30:38.214Z,1.38
2023-03-26T09:34:06.607Z,1.88
2023-03-26T09:37:18.791Z,1.23
2023-03-26T09:40:24.921Z,1.30
2023-03-26T09:43:48.982Z,1.63
2023-03-26T09:47:18.704Z,2.00
2023-03-26T09:51:04.773Z,1.75
2023-03-26T09:54:12.625Z,1.65
2023-03-26T09:57:33.306Z,1.55
2023-03-26T10:01:12.607Z,1.92
2023-03-26T10:04:29.392Z,1.10
2023-03-26T10:07:51.630Z,1.63
2023-03-26T10:11:09.690Z,2.28
2023-03-26T10:14:26.549Z,1.73
2023-03-26T10:17:43.323Z,2.72
2023-03-26T10:20:45.336Z,1.85
2023-03-26T10:23:51.115Z,1.33
2023-03-26T10:27:24.828Z,1.50
2023-03-26T10:31:07.860Z,1.92
2023-03-26T10:34:30.111Z,1.23
2023-03-26T10:38:20.049Z,1.70
2023-03-26T10:42:04.491Z,3.42
2023-03-26T10:45:24.854Z,2.17
2023-03-26T10:48:42.791Z,3.35
2023-03-26T10:51:53.625Z,1.38
2023-03-26T10:55:04.004Z,1.55
2023-03-26T10:58:23.735Z,1.70
2023-03-26T11:01:37.325Z,1.63
2023-03-26T11:05:17.055Z,2.65
2023-03-26T11:08:31.141Z,1.52
2023-03-26T11:11:42.383Z,2.08
2023-03-26T11:14:54.190Z,1.35
2023-03-26T11:18:17.218Z,1.42
2023-03-26T11:21:49.153Z,1.63
2023-03-26T11:25:00.163Z,1.40
2023-03-26T11:28:23.864Z,3.20
2023-03-26T11:31:54.103Z,1.92
2023-03-26T11:35:03.439Z,1.90
2023-03-26T11:38:26.820Z,2.10
2023-03-26T11:41:32.718Z,1.80
2023-03-26T11:44:39.558Z,1.73
2023-03-26T11:48:15.222Z,1.25
2023-03-26T11:51:30.933Z,2.05
2023-03-26T11:54:33.779Z,1.40
2023-03-26T11:57:37.654Z,1.55
2023-03-26T12:00:40.630Z,2.28
2023-03-26T12:03:42.864Z,1.27
2023-03-26T12:06:57.855Z,2.60
2023-03-26T12:10:18.302Z,2.70
2023-03-26T12:13:23.418Z,1.80
2023-03-26T12:16:26.436Z,1.90
2023-03-26T12:19:45.020Z,1.75
2023-03-26T12:22:47.940Z,1.45
2023-03-26T12:26:14.930Z,2.13
2023-03-26T12:29:19.036Z,1.45
2023-03-26T12:35:31.084Z,1.13
2023-03-26T12:38:35.871Z,1.63
2023-03-26T12:44:41.741Z,1.52
2023-03-26T12:45:07.023Z,1.70
2023-03-26T12:48:15.821Z,1.50
2023-03-26T12:51:43.358Z,0.85
2023-03-26T12:55:03.706Z,2.22
2023-03-26T12:58:28.547Z,2.35
2023-03-26T13:02:05.386Z,1.10
2023-03-26T13:05:49.197Z,1.80
2023-03-26T13:09:15.863Z,2.65
2023-03-26T13:12:57.506Z,1.50
2023-03-26T13:16:13.623Z,1.20
2023-03-26T13:19:29.188Z,1.52
2023-03-26T13:22:49.637Z,1.95
2023-03-26T13:25:58.449Z,2.47
2023-03-26T13:29:26.294Z,1.00
2023-03-26T13:32:40.232Z,1.00
2023-03-26T13:36:14.388Z,1.25
2023-03-26T13:39:25.398Z,2.13
2023-03-26T13:42:50.684Z,1.73
2023-03-26T13:46:03.443Z,1.60
2023-03-26T13:49:08.569Z,3.53
2023-03-26T13:52:55.260Z,1.80
2023-03-26T13:56:00.509Z,2.60
2023-03-26T13:59:08.970Z,2.53
2023-03-26T14:02:22.491Z,2.25
2023-03-26T14:05:27.565Z,3.50
2023-03-26T14:08:44.907Z,2.03
2023-03-26T14:12:21.606Z,2.55
2023-03-26T14:15:47.039Z,1.60
2023-03-26T14:19:01.131Z,2.40
2023-03-26T14:22:18.393Z,2.60
2023-03-26T14:25:26.436Z,2.65
2023-03-26T14:28:57.363Z,2.75
2023-03-26T14:32:24.124Z,1.85
2023-03-26T14:35:50.025Z,1.58
2023-03-26T14:39:33.210Z,1.65
2023-03-26T14:42:46.126Z,2.08
2023-03-26T14:46:15.147Z,1.65
2023-03-26T14:49:28.745Z,1.70
2023-03-26T14:53:01.442Z,1.70
2023-03-26T14:56:15.561Z,2.97
2023-03-26T14:59:23.795Z,2.08
2023-03-26T15:02:52.164Z,2.45
2023-03-26T15:06:39.316Z,3.28
2023-03-26T15:10:18.734Z,2.00
2023-03-26T15:13:48.884Z,2.70
2023-03-26T15:17:15.944Z,3.20
2023-03-26T15:20:49.758Z,3.15
2023-03-26T15:24:10.863Z,2.03
2023-03-26T15:27:31.230Z,3.08
2023-03-26T15:31:10.868Z,1.80
2023-03-26T15:34:34.714Z,2.35
2023-03-26T15:37:58.771Z,2.70
2023-03-26T15:41:28.567Z,1.67
2023-03-26T15:44:53.221Z,3.10
2023-03-26T15:48:12.165Z,2.45
2023-03-26T15:51:52.605Z,3.20
2023-03-26T15:55:16.343Z,2.05
2023-03-26T15:58:34.669Z,2.30
2023-03-26T16:01:47.931Z,2.85
2023-03-26T16:05:19.531Z,2.53
2023-03-26T16:08:47.784Z,2.42
2023-03-26T16:11:55.275Z,2.03
2023-03-26T16:15:07.842Z,4.03
2023-03-26T16:18:15.841Z,2.17
2023-03-26T16:21:36.759Z,1.80
2023-03-26T16:24:46.884Z,2.63
2023-03-26T16:28:12.266Z,1.88
2023-03-26T16:31:36.191Z,1.88
2023-03-26T16:34:57.382Z,2.15
2023-03-26T16:38:27.650Z,3.13
2023-03-26T16:41:31.706Z,1.38
2023-03-26T16:44:52.800Z,1.92
2023-03-26T16:48:01.714Z,2.13
2023-03-26T16:51:14.773Z,1.75
2023-03-26T16:54:20.412Z,2.03
2023-03-26T16:57:45.560Z,1.73
2023-03-26T17:01:05.423Z,2.00
2023-03-26T17:04:21.699Z,1.58
2023-03-26T17:07:33.272Z,1.35
2023-03-26T17:11:03.471Z,1.52
2023-03-26T17:14:28.519Z,1.80
2023-03-26T17:17:53.218Z,2.00
2023-03-26T17:21:08.590Z,2.47
2023-03-26T17:24:18.745Z,2.22
2023-03-26T17:27:23.992Z,1.77
2023-03-26T17:30:51.501Z,2.55
2023-03-26T17:33:54.524Z,2.10
2023-03-26T17:36:58.850Z,1.67
2023-03-26T17:40:12.538Z,1.85
2023-03-26T17:43:36.397Z,2.43
2023-03-26T17:46:47.875Z,1.98
2023-03-26T17:50:06.946Z,1.75
2023-03-26T17:53:33.548Z,2.20
2023-03-26T17:56:37.937Z,1.35
2023-03-26T18:02:48.688Z,2.22
2023-03-26T18:05:56.708Z,2.50
2023-03-26T18:09:06.335Z,2.83
2023-03-26T18:12:31.902Z,2.63
2023-03-26T18:19:20.013Z,2.35
2023-03-26T18:22:30.350Z,1.70
2023-03-26T18:25:34.071Z,2.22
2023-03-26T18:28:42.874Z,2.97
2023-03-26T18:31:46.514Z,1.73
2023-03-26T18:34:59.055Z,2.22
2023-03-26T18:38:11.849Z,1.83
2023-03-26T18:41:30.449Z,2.20
2023-03-26T18:44:39.229Z,1.70
2023-03-26T18:47:41.584Z,2.50
2023-03-26T18:50:44.462Z,2.20
2023-03-26T18:53:57.613Z,2.67
2023-03-26T18:57:15.080Z,1.98
2023-03-26T19:00:27.936Z,2.33
2023-03-26T19:03:35.612Z,3.60
2023-03-26T19:06:41.223Z,2.90
2023-03-26T19:09:44.361Z,2.22
2023-03-26T19:12:46.636Z,2.25
2023-03-26T19:15:52.039Z,4.47
2023-03-26T19:18:54.520Z,2.50
2023-03-26T19:21:59.041Z,3.17
2023-03-26T19:25:02.812Z,2.35
2023-03-26T19:28:06.607Z,2.72
2023-03-26T19:31:12.544Z,2.97
2023-03-26T19:34:14.957Z,2.47
2023-03-26T19:37:26.568Z,2.95
2023-03-26T19:40:34.356Z,3.25
2023-03-26T19:43:36.479Z,2.25
2023-03-26T19:46:53.781Z,2.78
2023-03-26T19:49:59.293Z,2.17
2023-03-26T19:53:19.536Z,1.95
2023-03-26T19:56:23.092Z,2.58
2023-03-26T19:59:25.163Z,3.63
2023-03-26T20:02:27.701Z,2.85
2023-03-26T20:05:34.046Z,3.00
2023-03-26T20:08:36.159Z,3.75
2023-03-26T20:11:39.321Z,2.40
2023-03-26T20:14:43.591Z,3.47
2023-03-26T20:17:46.599Z,3.20
2023-03-26T20:20:48.716Z,3.53
2023-03-26T20:23:54.880Z,3.10
2023-03-26T20:26:56.992Z,3.22
2023-03-26T20:29:59.216Z,3.78
2023-03-26T20:33:12.962Z,4.15
2023-03-26T20:36:33.626Z,3.42
2023-03-26T20:39:37.037Z,4.05
2023-03-26T20:42:42.757Z,4.07
2023-03-26T20:45:48.611Z,3.17
2023-03-26T20:48:52.012Z,3.30
2023-03-26T20:51:54.307Z,3.93
2023-03-26T20:54:56.485Z,2.80
2023-03-26T20:57:58.530Z,3.73
2023-03-26T21:01:02.458Z,3.87
2023-03-26T21:04:04.721Z,4.53
2023-03-26T21:07:17.645Z,4.27
2023-03-26T21:10:21.213Z,6.10
2023-03-26T21:13:45.164Z,4.23
2023-03-26T21:16:47.543Z,4.93
2023-03-26T21:19:50.318Z,4.87
2023-03-26T21:22:58.504Z,6.57
2023-03-26T21:26:09.741Z,3.60
2023-03-26T21:29:12.731Z,3.93
2023-03-26T21:32:15.225Z,4.63
2023-03-26T21:35:18.287Z,5.30
2023-03-26T21:38:24.852Z,3.13
2023-03-26T21:41:41.776Z,5.10
2023-03-26T21:44:44.127Z,4.73
2023-03-26T21:47:46.880Z,3.37
2023-03-26T21:50:49.442Z,3.73
2023-03-26T21:53:51.891Z,3.73
2023-03-26T21:57:04.838Z,3.53
2023-03-26T22:00:16.409Z,3.77
2023-03-26T22:03:43.242Z,4.33
2023-03-26T22:06:57.648Z,4.43
2023-03-26T22:09:59.749Z,3.88
2023-03-26T22:13:02.795Z,4.17
2023-03-26T22:16:09.070Z,3.93
2023-03-26T22:19:12.821Z,4.43
2023-03-26T22:22:15.101Z,3.05
2023-03-26T22:25:18.129Z,5.00
2023-03-26T22:28:20.830Z,5.63
2023-03-26T22:31:26.519Z,3.93
2023-03-26T22:34:28.637Z,2.63
2023-03-26T22:37:30.961Z,4.17
2023-03-26T22:40:32.988Z,3.93
2023-03-26T22:43:34.986Z,4.07
2023-03-26T22:46:38.120Z,4.77
2023-03-26T22:49:40.460Z,5.00
2023-03-26T22:52:42.606Z,3.70
2023-03-26T22:55:45.279Z,3.27
2023-03-26T22:58:48.593Z,3.90
2023-03-26T23:01:52.571Z,4.55
2023-03-26T23:04:54.674Z,3.67
2023-03-26T23:07:57.216Z,4.40
2023-03-26T23:10:59.596Z,4.43
2023-03-26T23:14:02.115Z,3.73
2023-03-26T23:17:04.365Z,3.90
2023-03-26T23:20:15.113Z,4.13
2023-03-26T23:23:17.795Z,4.37
2023-03-26T23:26:21.495Z,4.13
2023-03-26T23:29:23.910Z,4.87
2023-03-26T23:32:26.084Z,4.10
2023-03-26T23:35:28.177Z,3.77
2023-03-26T23:38:43.078Z,3.10
2023-03-26T23:41:46.357Z,3.80
2023-03-26T23:44:48.389Z,3.73
2023-03-26T23:47:50.696Z,4.17
2023-03-26T23:50:55.013Z,4.40
2023-03-26T23:54:06.747Z,10.13
2023-03-26T23:57:09.058Z,4.23
